Laida — EAVE — position and weather

sailwx.info

Track history (hours):
 
Tides and Currents Weather Stations Pressure Air Temp Water Temp Dewpoint Dewpoint Depression Visibility Wind Speed Wind Dir Waves Ship Positions

Laida

Last reported at 2016-Feb-09 13:33 UTC. Time now 2016-Feb-11 15:02 UTC.
Position N 51°02' E 001°24'.

Length 100 m; draft 6.6 m.

Type: Cargo ship. MMSI: 224509000.

Date/timePositionNaut miles runAvg speedWind from/ knotsBaromVisibWave heightAir tempDewpointWater temp
2016-Feb-09 13:33N 51°02' E 001°24'7 7.5
2016-Feb-09 12:33N 51°08' E 001°33'8 7.7
2016-Feb-09 11:33N 51°14' E 001°40'10 9.6
2016-Feb-09 10:33N 51°23' E 001°35'5 4.7
2016-Feb-09 09:33N 51°25' E 001°28'0 0.0
2016-Feb-09 08:33N 51°25' E 001°28'0 0.1
2016-Feb-09 07:34N 51°25' E 001°28'0 0.1
2016-Feb-09 06:33N 51°25' E 001°28'0 0.0
2016-Feb-09 05:33N 51°25' E 001°28'0 0.0
2016-Feb-09 04:34N 51°25' E 001°28'0 0.0
2016-Feb-09 03:33N 51°25' E 001°28'0 0.0
2016-Feb-09 02:33N 51°25' E 001°28'0 0.1
2016-Feb-09 01:34N 51°25' E 001°28'0 0.1
2016-Feb-09 00:34N 51°25' E 001°28'0 0.1
2016-Feb-08 23:33N 51°25' E 001°28'0 0.0
2016-Feb-08 22:34N 51°25' E 001°28'0 0.1
2016-Feb-08 21:31N 51°25' E 001°28'0 0.2
2016-Feb-08 20:33N 51°25' E 001°28'0 0.0
2016-Feb-08 19:34N 51°25' E 001°28'0 0.0
2016-Feb-08 18:34N 51°25' E 001°28'0 0.0
2016-Feb-08 17:33N 51°25' E 001°28'0 0.0
2016-Feb-08 16:34N 51°25' E 001°28'0 0.0
2016-Feb-08 15:33N 51°25' E 001°28'0 0.0
2016-Feb-08 14:33N 51°25' E 001°28'0 0.0
2016-Feb-08 13:34N 51°25' E 001°28'0 0.1
2016-Feb-08 12:34N 51°25' E 001°28'0 0.1
2016-Feb-08 11:32N 51°25' E 001°28'0 0.1
2016-Feb-08 10:33N 51°25' E 001°28'0 0.0
2016-Feb-08 09:34N 51°25' E 001°28'0 0.0
2016-Feb-08 08:33N 51°25' E 001°28'0 0.1
2016-Feb-08 07:34N 51°25' E 001°28'0 0.1
2016-Feb-08 06:34N 51°25' E 001°28'0 0.0
2016-Feb-08 05:34N 51°25' E 001°28'0 0.0
2016-Feb-08 04:33N 51°25' E 001°28'0 0.0
2016-Feb-08 03:32N 51°25' E 001°28'0 0.0
2016-Feb-08 02:32N 51°25' E 001°28'0 0.0
2016-Feb-08 01:32N 51°25' E 001°28'0 0.1
2016-Feb-08 00:33N 51°25' E 001°28'0 0.1
2016-Feb-07 23:34N 51°25' E 001°28'0 0.1
2016-Feb-07 22:33N 51°25' E 001°28'0 0.0
2016-Feb-07 21:33N 51°25' E 001°28'0 0.0
2016-Feb-07 20:34N 51°25' E 001°28'0 0.0
2016-Feb-07 19:33N 51°25' E 001°28'0 0.1
2016-Feb-07 18:33N 51°25' E 001°28'0 0.0
2016-Feb-07 17:33N 51°25' E 001°28'0 0.0
2016-Feb-07 16:33N 51°25' E 001°28'0 0.0
2016-Feb-07 15:34N 51°25' E 001°28'0 0.0
2016-Feb-07 14:33N 51°25' E 001°28'0 0.0
2016-Feb-07 13:33N 51°25' E 001°28'0 0.0
2016-Feb-07 12:33N 51°25' E 001°28'0 0.1
2016-Feb-07 11:34N 51°25' E 001°28'0 0.1
2016-Feb-07 10:33N 51°25' E 001°28'0 0.0
2016-Feb-07 09:34N 51°25' E 001°28'0 0.0
2016-Feb-07 08:33N 51°25' E 001°28'0 0.0
2016-Feb-07 07:33N 51°25' E 001°28'0 0.1
2016-Feb-07 06:33N 51°25' E 001°28'0 0.1
2016-Feb-07 05:34N 51°25' E 001°28'0 0.0
2016-Feb-07 04:33N 51°25' E 001°28'0 0.0
2016-Feb-07 03:33N 51°25' E 001°28'0 0.0
2016-Feb-07 02:33N 51°25' E 001°28'0 0.1
2016-Feb-07 01:33N 51°25' E 001°28'0 0.1
2016-Feb-07 00:33N 51°25' E 001°28'0 0.1
2016-Feb-06 23:33N 51°25' E 001°28'7 6.6
2016-Feb-06 22:33N 51°30' E 001°36'7 7.1
2016-Feb-06 21:33N 51°34' E 001°45'9 8.9
2016-Feb-06 20:33N 51°43' E 001°45'10 9.8
2016-Feb-06 19:33N 51°52' E 001°44'1010.1
2016-Feb-06 18:33N 52°02' E 001°47'9 9.5
2016-Feb-06 17:33N 52°11' E 001°51'9 8.5
2016-Feb-06 16:31N 52°20' E 001°54'8 7.7
2016-Feb-06 15:32N 52°27' E 001°57'7 7.1
2016-Feb-06 14:33N 52°34' E 001°60'6 6.0
2016-Feb-06 13:33N 52°40' E 001°60'6 6.1
2016-Feb-06 12:33N 52°45' E 001°55'7 7.4
2016-Feb-06 11:33N 52°50' E 001°45'8 8.1
2016-Feb-06 10:33N 52°55' E 001°34'9 8.8
2016-Feb-06 09:33N 53°00' E 001°23'10 9.9
2016-Feb-06 08:33N 53°04' E 001°08'1010.1
2016-Feb-06 07:33N 53°09' E 000°53'3110.1
2016-Feb-06 04:26N 53°37' E 000°30'1311.0
2016-Feb-06 03:18N 53°47' E 000°17'810.9
2016-Feb-06 02:32N 53°54' E 000°08'1111.3
2016-Feb-06 01:33N 54°05' E 000°04'1111.1
2016-Feb-06 00:33N 54°14' W 000°07'1111.0
2016-Feb-05 23:33N 54°22' W 000°19'1110.6
2016-Feb-05 22:33N 54°31' W 000°28'1010.0
2016-Feb-05 21:32N 54°37' W 000°43'9 9.2
2016-Feb-05 20:33N 54°42' W 000°56'10 9.4
2016-Feb-05 19:32N 54°49' W 001°07'9 9.4
2016-Feb-05 18:33N 54°57' W 001°14'8210.3
2016-Feb-05 10:33N 56°15' W 002°02'1211.3
2016-Feb-05 09:26N 56°27' W 002°08'6110.2
2016-Feb-05 03:29N 57°25' W 001°42'9 9.5
2016-Feb-05 02:33N 57°34' W 001°40'9 9.3
2016-Feb-05 01:33N 57°42' W 001°49'10 0.4
2016-Feb-03 22:31N 57°46' W 002°07'8 8.7
2016-Feb-03 21:33N 57°43' W 001°52'9 8.6
2016-Feb-03 20:33N 57°37' W 001°41'10 9.2
2016-Feb-03 19:29N 57°27' W 001°41'20 9.5
2016-Feb-03 17:24N 57°10' W 002°01'3 3.3
2016-Feb-03 16:32N 57°09' W 002°05'0 0.0
2016-Feb-03 13:07N 57°09' W 002°05'0 0.0
2016-Feb-03 12:25N 57°09' W 002°05'0 0.0
2016-Feb-03 11:10N 57°09' W 002°05'0 0.0
2016-Feb-03 10:31N 57°09' W 002°05'0 0.0
2016-Feb-03 09:25N 57°09' W 002°05'0 0.0
2016-Feb-03 08:31N 57°09' W 002°05'0 0.0
2016-Feb-03 07:25N 57°09' W 002°05'0 0.0
2016-Feb-03 06:31N 57°09' W 002°05'0 0.0
2016-Feb-03 05:28N 57°09' W 002°05'0 0.0
2016-Feb-03 04:28N 57°09' W 002°05'0 0.0
2016-Feb-03 03:31N 57°09' W 002°05'0 0.0
2016-Feb-03 02:25N 57°09' W 002°05'0 0.0
2016-Feb-03 00:31N 57°09' W 002°05'0 0.0
2016-Feb-02 23:19N 57°09' W 002°05'0 0.0
2016-Feb-02 22:31N 57°09' W 002°05'0 0.0
2016-Feb-02 20:19N 57°09' W 002°05'0 0.0
2016-Feb-02 19:28N 57°09' W 002°05'0 0.0
2016-Feb-02 18:25N 57°09' W 002°05'0 0.0
2016-Feb-02 16:13N 57°09' W 002°05'0 0.0
2016-Feb-02 15:19N 57°09' W 002°05'0 0.0
2016-Feb-02 14:19N 57°09' W 002°05'0 0.0
2016-Feb-02 13:25N 57°09' W 002°05'0 0.0
2016-Feb-02 12:31N 57°09' W 002°05'0 0.0
2016-Feb-02 11:31N 57°09' W 002°05'0 0.0
2016-Feb-02 10:13N 57°09' W 002°05'0 0.0
2016-Feb-02 09:10N 57°09' W 002°05'0 0.0
2016-Feb-02 08:31N 57°09' W 002°05'0 0.0
2016-Feb-02 07:31N 57°09' W 002°05'0 0.0
2016-Feb-02 05:31N 57°09' W 002°05'0 0.0
2016-Feb-02 04:19N 57°09' W 002°05'0 0.0
2016-Feb-02 03:19N 57°09' W 002°05'0 0.0
2016-Feb-02 02:31N 57°09' W 002°05'0 0.0
2016-Feb-02 01:31N 57°09' W 002°05'0 0.0
2016-Feb-02 00:13N 57°09' W 002°05'0 0.0
2016-Feb-01 23:31N 57°09' W 002°05'0 0.0
2016-Feb-01 22:31N 57°09' W 002°05'0 0.0
2016-Feb-01 21:31N 57°09' W 002°05'0 0.0
2016-Feb-01 20:25N 57°09' W 002°05'0 0.0
2016-Feb-01 19:31N 57°09' W 002°05'0 0.0
2016-Feb-01 18:25N 57°09' W 002°05'0 0.0
2016-Feb-01 17:31N 57°09' W 002°05'0 0.0
2016-Feb-01 16:31N 57°09' W 002°05'0 0.0
2016-Feb-01 15:31N 57°09' W 002°05'0 0.0
2016-Feb-01 14:31N 57°09' W 002°05'0 0.0
2016-Feb-01 13:19N 57°09' W 002°05'0 0.0
2016-Feb-01 12:31N 57°09' W 002°05'0 0.0
2016-Feb-01 11:25N 57°09' W 002°05'0 0.0
2016-Feb-01 09:31N 57°09' W 002°05'0 0.0
2016-Feb-01 08:33N 57°09' W 002°05'1 1.3
2016-Feb-01 07:33N 57°09' W 002°03'1 1.3
2016-Feb-01 06:30N 57°09' W 002°00'10710.7
2016-Jan-31 20:31N 55°25' W 001°17'2311.0
2016-Jan-31 18:28N 55°05' W 000°59'1011.1
2016-Jan-31 17:33N 54°56' W 000°50'1211.3
2016-Jan-31 16:32N 54°46' W 000°39'1111.5
2016-Jan-31 15:34N 54°37' W 000°29'1212.1
2016-Jan-31 14:34N 54°27' W 000°18'1212.3
2016-Jan-31 13:34N 54°16' W 000°07'1212.3
2016-Jan-31 12:34N 54°05' E 000°02'1211.8
2016-Jan-31 11:34N 53°54' E 000°09'1211.2
2016-Jan-31 10:27N 53°44' E 000°21'910.2
2016-Jan-31 09:32N 53°37' E 000°32'2010.0
2016-Jan-31 07:33N 53°18' E 000°41'1111.2
2016-Jan-31 06:33N 53°09' E 000°53'1211.9
2016-Jan-31 05:34N 53°04' E 001°11'1312.5
2016-Jan-31 04:34N 52°58' E 001°29'1212.0
2016-Jan-31 03:34N 52°51' E 001°45'1010.3
2016-Jan-31 02:34N 52°44' E 001°58'10 9.7
2016-Jan-31 01:34N 52°35' E 002°01'9 9.3
2016-Jan-31 00:34N 52°26' E 001°57'11 9.2
2016-Jan-30 23:20N 52°14' E 001°54'8 9.9
2016-Jan-30 22:34N 52°07' E 001°52'1110.8
2016-Jan-30 21:34N 51°56' E 001°48'1211.7
2016-Jan-30 20:34N 51°45' E 001°49'1111.0
2016-Jan-30 19:34N 51°34' E 001°45'1212.3
2016-Jan-30 18:34N 51°26' E 001°30'1212.2
2016-Jan-30 17:34N 51°29' E 001°11'1312.6
2016-Jan-30 16:34N 51°29' E 000°51'1111.2
2016-Jan-30 15:33N 51°30' E 000°33'8 8.2
2016-Jan-30 14:34N 51°27' E 000°20'0 0.5
2016-Jan-30 13:33N 51°27' E 000°21'  
Track history (hours):
 
Tides and Currents Weather Stations Pressure Air Temp Water Temp Dewpoint Dewpoint Depression Visibility Wind Speed Wind Dir Waves Ship Positions

Laida

Last reported at 2016-Feb-09 13:33 UTC. Time now 2016-Feb-11 15:02 UTC.
Position N 51°02' E 001°24'.

Length 100 m; draft 6.6 m.

Type: Cargo ship. MMSI: 224509000.

Date/timePositionNaut miles runAvg speedWind from/ knotsBaromVisibWave heightAir tempDewpointWater temp
2016-Feb-09 13:33N 51°02' E 001°24'7 7.5
2016-Feb-09 12:33N 51°08' E 001°33'8 7.7
2016-Feb-09 11:33N 51°14' E 001°40'10 9.6
2016-Feb-09 10:33N 51°23' E 001°35'5 4.7
2016-Feb-09 09:33N 51°25' E 001°28'0 0.0
2016-Feb-09 08:33N 51°25' E 001°28'0 0.1
2016-Feb-09 07:34N 51°25' E 001°28'0 0.1
2016-Feb-09 06:33N 51°25' E 001°28'0 0.0
2016-Feb-09 05:33N 51°25' E 001°28'0 0.0
2016-Feb-09 04:34N 51°25' E 001°28'0 0.0
2016-Feb-09 03:33N 51°25' E 001°28'0 0.0
2016-Feb-09 02:33N 51°25' E 001°28'0 0.1
2016-Feb-09 01:34N 51°25' E 001°28'0 0.1
2016-Feb-09 00:34N 51°25' E 001°28'0 0.1
2016-Feb-08 23:33N 51°25' E 001°28'0 0.0
2016-Feb-08 22:34N 51°25' E 001°28'0 0.1
2016-Feb-08 21:31N 51°25' E 001°28'0 0.2
2016-Feb-08 20:33N 51°25' E 001°28'0 0.0
2016-Feb-08 19:34N 51°25' E 001°28'0 0.0
2016-Feb-08 18:34N 51°25' E 001°28'0 0.0
2016-Feb-08 17:33N 51°25' E 001°28'0 0.0
2016-Feb-08 16:34N 51°25' E 001°28'0 0.0
2016-Feb-08 15:33N 51°25' E 001°28'0 0.0
2016-Feb-08 14:33N 51°25' E 001°28'0 0.0
2016-Feb-08 13:34N 51°25' E 001°28'0 0.1
2016-Feb-08 12:34N 51°25' E 001°28'0 0.1
2016-Feb-08 11:32N 51°25' E 001°28'0 0.1
2016-Feb-08 10:33N 51°25' E 001°28'0 0.0
2016-Feb-08 09:34N 51°25' E 001°28'0 0.0
2016-Feb-08 08:33N 51°25' E 001°28'0 0.1
2016-Feb-08 07:34N 51°25' E 001°28'0 0.1
2016-Feb-08 06:34N 51°25' E 001°28'0 0.0
2016-Feb-08 05:34N 51°25' E 001°28'0 0.0
2016-Feb-08 04:33N 51°25' E 001°28'0 0.0
2016-Feb-08 03:32N 51°25' E 001°28'0 0.0
2016-Feb-08 02:32N 51°25' E 001°28'0 0.0
2016-Feb-08 01:32N 51°25' E 001°28'0 0.1
2016-Feb-08 00:33N 51°25' E 001°28'0 0.1
2016-Feb-07 23:34N 51°25' E 001°28'0 0.1
2016-Feb-07 22:33N 51°25' E 001°28'0 0.0
2016-Feb-07 21:33N 51°25' E 001°28'0 0.0
2016-Feb-07 20:34N 51°25' E 001°28'0 0.0
2016-Feb-07 19:33N 51°25' E 001°28'0 0.1
2016-Feb-07 18:33N 51°25' E 001°28'0 0.0
2016-Feb-07 17:33N 51°25' E 001°28'0 0.0
2016-Feb-07 16:33N 51°25' E 001°28'0 0.0
2016-Feb-07 15:34N 51°25' E 001°28'0 0.0
2016-Feb-07 14:33N 51°25' E 001°28'0 0.0
2016-Feb-07 13:33N 51°25' E 001°28'0 0.0
2016-Feb-07 12:33N 51°25' E 001°28'0 0.1
2016-Feb-07 11:34N 51°25' E 001°28'0 0.1
2016-Feb-07 10:33N 51°25' E 001°28'0 0.0
2016-Feb-07 09:34N 51°25' E 001°28'0 0.0
2016-Feb-07 08:33N 51°25' E 001°28'0 0.0
2016-Feb-07 07:33N 51°25' E 001°28'0 0.1
2016-Feb-07 06:33N 51°25' E 001°28'0 0.1
2016-Feb-07 05:34N 51°25' E 001°28'0 0.0
2016-Feb-07 04:33N 51°25' E 001°28'0 0.0
2016-Feb-07 03:33N 51°25' E 001°28'0 0.0
2016-Feb-07 02:33N 51°25' E 001°28'0 0.1
2016-Feb-07 01:33N 51°25' E 001°28'0 0.1
2016-Feb-07 00:33N 51°25' E 001°28'0 0.1
2016-Feb-06 23:33N 51°25' E 001°28'7 6.6
2016-Feb-06 22:33N 51°30' E 001°36'7 7.1
2016-Feb-06 21:33N 51°34' E 001°45'9 8.9
2016-Feb-06 20:33N 51°43' E 001°45'10 9.8
2016-Feb-06 19:33N 51°52' E 001°44'1010.1
2016-Feb-06 18:33N 52°02' E 001°47'9 9.5
2016-Feb-06 17:33N 52°11' E 001°51'9 8.5
2016-Feb-06 16:31N 52°20' E 001°54'8 7.7
2016-Feb-06 15:32N 52°27' E 001°57'7 7.1
2016-Feb-06 14:33N 52°34' E 001°60'6 6.0
2016-Feb-06 13:33N 52°40' E 001°60'6 6.1
2016-Feb-06 12:33N 52°45' E 001°55'7 7.4
2016-Feb-06 11:33N 52°50' E 001°45'8 8.1
2016-Feb-06 10:33N 52°55' E 001°34'9 8.8
2016-Feb-06 09:33N 53°00' E 001°23'10 9.9
2016-Feb-06 08:33N 53°04' E 001°08'1010.1
2016-Feb-06 07:33N 53°09' E 000°53'3110.1
2016-Feb-06 04:26N 53°37' E 000°30'1311.0
2016-Feb-06 03:18N 53°47' E 000°17'810.9
2016-Feb-06 02:32N 53°54' E 000°08'1111.3
2016-Feb-06 01:33N 54°05' E 000°04'1111.1
2016-Feb-06 00:33N 54°14' W 000°07'1111.0
2016-Feb-05 23:33N 54°22' W 000°19'1110.6
2016-Feb-05 22:33N 54°31' W 000°28'1010.0
2016-Feb-05 21:32N 54°37' W 000°43'9 9.2
2016-Feb-05 20:33N 54°42' W 000°56'10 9.4
2016-Feb-05 19:32N 54°49' W 001°07'9 9.4
2016-Feb-05 18:33N 54°57' W 001°14'8210.3
2016-Feb-05 10:33N 56°15' W 002°02'1211.3
2016-Feb-05 09:26N 56°27' W 002°08'6110.2
2016-Feb-05 03:29N 57°25' W 001°42'9 9.5
2016-Feb-05 02:33N 57°34' W 001°40'9 9.3
2016-Feb-05 01:33N 57°42' W 001°49'10 0.4
2016-Feb-03 22:31N 57°46' W 002°07'8 8.7
2016-Feb-03 21:33N 57°43' W 001°52'9 8.6
2016-Feb-03 20:33N 57°37' W 001°41'10 9.2
2016-Feb-03 19:29N 57°27' W 001°41'20 9.5
2016-Feb-03 17:24N 57°10' W 002°01'3 3.3
2016-Feb-03 16:32N 57°09' W 002°05'0 0.0
2016-Feb-03 13:07N 57°09' W 002°05'0 0.0
2016-Feb-03 12:25N 57°09' W 002°05'0 0.0
2016-Feb-03 11:10N 57°09' W 002°05'0 0.0
2016-Feb-03 10:31N 57°09' W 002°05'0 0.0
2016-Feb-03 09:25N 57°09' W 002°05'0 0.0
2016-Feb-03 08:31N 57°09' W 002°05'0 0.0
2016-Feb-03 07:25N 57°09' W 002°05'0 0.0
2016-Feb-03 06:31N 57°09' W 002°05'0 0.0
2016-Feb-03 05:28N 57°09' W 002°05'0 0.0
2016-Feb-03 04:28N 57°09' W 002°05'0 0.0
2016-Feb-03 03:31N 57°09' W 002°05'0 0.0
2016-Feb-03 02:25N 57°09' W 002°05'0 0.0
2016-Feb-03 00:31N 57°09' W 002°05'0 0.0
2016-Feb-02 23:19N 57°09' W 002°05'0 0.0
2016-Feb-02 22:31N 57°09' W 002°05'0 0.0
2016-Feb-02 20:19N 57°09' W 002°05'0 0.0
2016-Feb-02 19:28N 57°09' W 002°05'0 0.0
2016-Feb-02 18:25N 57°09' W 002°05'0 0.0
2016-Feb-02 16:13N 57°09' W 002°05'0 0.0
2016-Feb-02 15:19N 57°09' W 002°05'0 0.0
2016-Feb-02 14:19N 57°09' W 002°05'0 0.0
2016-Feb-02 13:25N 57°09' W 002°05'0 0.0
2016-Feb-02 12:31N 57°09' W 002°05'0 0.0
2016-Feb-02 11:31N 57°09' W 002°05'0 0.0
2016-Feb-02 10:13N 57°09' W 002°05'0 0.0
2016-Feb-02 09:10N 57°09' W 002°05'0 0.0
2016-Feb-02 08:31N 57°09' W 002°05'0 0.0
2016-Feb-02 07:31N 57°09' W 002°05'0 0.0
2016-Feb-02 05:31N 57°09' W 002°05'0 0.0
2016-Feb-02 04:19N 57°09' W 002°05'0 0.0
2016-Feb-02 03:19N 57°09' W 002°05'0 0.0
2016-Feb-02 02:31N 57°09' W 002°05'0 0.0
2016-Feb-02 01:31N 57°09' W 002°05'0 0.0
2016-Feb-02 00:13N 57°09' W 002°05'0 0.0
2016-Feb-01 23:31N 57°09' W 002°05'0 0.0
2016-Feb-01 22:31N 57°09' W 002°05'0 0.0
2016-Feb-01 21:31N 57°09' W 002°05'0 0.0
2016-Feb-01 20:25N 57°09' W 002°05'0 0.0
2016-Feb-01 19:31N 57°09' W 002°05'0 0.0
2016-Feb-01 18:25N 57°09' W 002°05'0 0.0
2016-Feb-01 17:31N 57°09' W 002°05'0 0.0
2016-Feb-01 16:31N 57°09' W 002°05'0 0.0
2016-Feb-01 15:31N 57°09' W 002°05'0 0.0
2016-Feb-01 14:31N 57°09' W 002°05'0 0.0
2016-Feb-01 13:19N 57°09' W 002°05'0 0.0
2016-Feb-01 12:31N 57°09' W 002°05'0 0.0
2016-Feb-01 11:25N 57°09' W 002°05'0 0.0
2016-Feb-01 09:31N 57°09' W 002°05'0 0.0
2016-Feb-01 08:33N 57°09' W 002°05'1 1.3
2016-Feb-01 07:33N 57°09' W 002°03'1 1.3
2016-Feb-01 06:30N 57°09' W 002°00'10710.7
2016-Jan-31 20:31N 55°25' W 001°17'2311.0
2016-Jan-31 18:28N 55°05' W 000°59'1011.1
2016-Jan-31 17:33N 54°56' W 000°50'1211.3
2016-Jan-31 16:32N 54°46' W 000°39'1111.5
2016-Jan-31 15:34N 54°37' W 000°29'1212.1
2016-Jan-31 14:34N 54°27' W 000°18'1212.3
2016-Jan-31 13:34N 54°16' W 000°07'1212.3
2016-Jan-31 12:34N 54°05' E 000°02'1211.8
2016-Jan-31 11:34N 53°54' E 000°09'1211.2
2016-Jan-31 10:27N 53°44' E 000°21'910.2
2016-Jan-31 09:32N 53°37' E 000°32'2010.0
2016-Jan-31 07:33N 53°18' E 000°41'1111.2
2016-Jan-31 06:33N 53°09' E 000°53'1211.9
2016-Jan-31 05:34N 53°04' E 001°11'1312.5
2016-Jan-31 04:34N 52°58' E 001°29'1212.0
2016-Jan-31 03:34N 52°51' E 001°45'1010.3
2016-Jan-31 02:34N 52°44' E 001°58'10 9.7
2016-Jan-31 01:34N 52°35' E 002°01'9 9.3
2016-Jan-31 00:34N 52°26' E 001°57'11 9.2
2016-Jan-30 23:20N 52°14' E 001°54'8 9.9
2016-Jan-30 22:34N 52°07' E 001°52'1110.8
2016-Jan-30 21:34N 51°56' E 001°48'1211.7
2016-Jan-30 20:34N 51°45' E 001°49'1111.0
2016-Jan-30 19:34N 51°34' E 001°45'1212.3
2016-Jan-30 18:34N 51°26' E 001°30'1212.2
2016-Jan-30 17:34N 51°29' E 001°11'1312.6
2016-Jan-30 16:34N 51°29' E 000°51'1111.2
2016-Jan-30 15:33N 51°30' E 000°33'8 8.2
2016-Jan-30 14:34N 51°27' E 000°20'0 0.5
2016-Jan-30 13:33N 51°27' E 000°21'  

Dump ship's entire track history